Manitowish Waters, WI

10:34 AM CDT on October 25, 2014 (GMT -0500)
Lakeland-Lee Memorial | Change Station
CLOSE
Current Station
Airport
Location: Arbor Vitae,
Elevation: 1627 ft
Nearby Weather Stations

Elev 1627 ft 45.93 °N, 89.73 °W | Updated 19 minutes ago

Clear
Clear
52 °F
Feels Like 52 °F
N
13
Wind Variable Wind from NW
Gusts 24 mph

Today
High -- | Low -- °F
--% Chance of Precip.
Yesterday
High -- | Low -- °F
Precip. -- in
7:30 AM 5:55 PM
Waxing Crescent, 3% visible
Pressure 29.86 in
Visibility 10.0 miles
Clouds Clear
Dew Point 35 °F
Humidity 53%
Rainfall 0.00 in
Snow Depth Not available.
UV 2 out of 12
Pollen 1.70 out of 12
Air Quality Not available.
Flu Activity Sporadic
METAR KARV 251515Z AUTO 31011G21KT 10SM CLR 11/02 A2986 RMK AO2 T01100017

More Conditions Fewer Conditions

Pressure 29.86 in
Visibility 10.0 miles
Clouds Clear
Dew Point 35 °F
Humidity 53%
Rainfall 0.00 in
Snow Depth Not available.
UV 2 out of 12
Pollen 1.70 out of 12
Air Quality Not available.
Flu Activity Sporadic
METAR KARV 251515Z AUTO 31011G21KT 10SM CLR 11/02 A2986 RMK AO2 T01100017

More Conditions Fewer Conditions

10-Day Weather Forecast

Almanac

Astronomy

Oct. 25, 2014 Rise Set
Actual Time 7:30 AM CDT 5:55 PM CDT
Civil Twilight 6:59 AM CDT 6:26 PM CDT
Nautical Twilight 6:24 AM CDT 7:01 PM CDT
Astronomical Twilight 5:49 AM CDT 7:36 PM CDT
Moon 9:13 AM CDT 7:14 PM CDT
Length of Visible Light 11h 27m
Length of Day
10h 25m
Tomorrow will be 3m 2s shorter.
Waxing Crescent, 3% of the Moon is Illuminated
Today
Waxing Crescent
Oct 30
First Quarter
Nov 6
Full
Nov 14
Last Quarter
Nov 22
New

Today's Extremes

State Highs State Lows

Community

WunderPhotos

Upload Photos

1,764,878 photos uploaded!

Nearby

Snow Depth

Station Depth Elevation
No new snow has been reported.

Earthquake Activity

City Distance Mag. Time & Date
No recent earthquake activity has been reported nearby.
Minimum magnitude displayed is 2.5.

Coastal Water Temperatures

Place Temperature
No Stations Reporting

Nearby Weather Stations